Hyalite Weather Station

This weather station provides temperature, wind speed, gust or max wind speed, and wind direction at 9982ft near the summit of Flanders Mountain. This data can be used with temperature and precipitation data from the Shower Falls SNOTEL site. If the data has not been updated recently you can view it directly on datagarrison.com

Elevation
9982ft
Jump to table bottom
Date Time Temperature
deg F
RH, % Wind Speed Wind Gust Wind Direction
01/16/19 22:00 17.5 86 18 36 SW - 239
01/16/19 21:00 17.3 91 18 30 W - 250
01/16/19 20:00 17.4 91 14 25 SW - 241
01/16/19 19:00 17.9 88 10 22 SW - 233
01/16/19 18:00 18.6 85 10 19 SW - 234
01/16/19 17:00 18.9 89 7 14 SW - 234
01/16/19 16:00 20.1 78 9 25 SW - 236
01/16/19 15:00 20.8 77 12 23 SW - 229
01/16/19 14:00 21.6 71 9 20 SW - 237
01/16/19 13:00 21.7 56 10 18 SW - 233
01/16/19 12:00 20.3 52 13 19 SW - 234
01/16/19 11:00 19.9 49 7 16 SW - 226
01/16/19 10:00 18.8 54 7 12 SW - 240
01/16/19 09:00 18.0 58 5 11 SW - 215
01/16/19 08:00 16.7 64 6 18 SW - 246
01/16/19 07:00 15.6 72 10 19 SW - 247
01/16/19 06:00 15.6 72 15 21 W - 250
01/16/19 05:00 15.2 75 14 22 SW - 243
01/16/19 04:00 15.5 73 14 24 SW - 240
01/16/19 03:00 15.9 74 12 27 SW - 227
01/16/19 02:00 15.4 78 11 24 SW - 222
01/16/19 01:00 15.9 76 13 27 SW - 222
01/16/19 00:00 15.5 84 17 31 SW - 227
01/15/19 23:00 15.5 89 17 30 SW - 227
01/15/19 22:00 16.1 88 15 31 SW - 230
01/15/19 21:00 16.3 89 17 31 SW - 234
01/15/19 20:00 17.2 86 22 33 SW - 236
01/15/19 19:00 17.3 88 24 35 SW - 237
01/15/19 18:00 18.4 82 20 35 SW - 230
01/15/19 17:00 18.9 81 22 33 SW - 222
01/15/19 16:00 19.4 73 11 30 SW - 225
01/15/19 15:00 20.9 60 16 29 SW - 222
01/15/19 14:00 21.5 33 18 32 SW - 215
01/15/19 13:00 22.1 21 15 30 SW - 218
01/15/19 12:00 24.3 27 10 24 SW - 206
01/15/19 11:00 25.1 36 7 15 SW - 225
01/15/19 10:00 23.1 35 7 13 SE - 153
01/15/19 09:00 25.2 23 6 11 SE - 140
01/15/19 08:00 23.8 25 6 10 E - 111
01/15/19 07:00 24.8 20 5 7 E - 97
01/15/19 06:00 24.8 15 3 5 SE - 118
01/15/19 05:00 25.7 14 4 7 SE - 119
01/15/19 04:00 25.6 15 8 11 E - 94
01/15/19 03:00 26.5 13 5 8 E - 73
01/15/19 02:00 26.1 11 3 6 NE - 38
01/15/19 01:00 28.2 8 3 4 NW - 333
01/15/19 00:00 28.4 9 6 8 W - 289
01/14/19 23:00 29.0 9 8 10 NW - 295
01/14/19 22:00 29.4 8 8 11 W - 275
01/14/19 21:00 29.5 8 10 13 W - 277